Terminal Aerodrome Forecast
Issued by NWS Wakefield, VA

Home | Current Version | Previous Version | Text Only | Print | Product List | Glossary On
Versions: 1 2 3 4 5 6 7 8 9 10 11 12 13 14 15
644
FTUS41 KAKQ 251140
TAFRIC
TAF
KRIC 251140Z 2512/2612 17007KT P6SM SCT250
     FM251500 18012G20KT P6SM SCT050 BKN250
     FM251900 24015G25KT 4SM -SHRA VCTS BKN040CB
     FM252100 28012G20KT P6SM BKN060
     FM260200 30009KT P6SM SKC=

USA.gov is the U.S. government's official web portal to all federal, state and local government web resources and services.